Time;durP1;ratioP1;P1;durP2;ratioP2;P2;SDS_P1;SDS_P2;PMS_P1;PMS_P2;Temp;Humidity;BMP_temperature;BMP_pressure;BME280_temperature;BME280_humidity;BME280_pressure;Samples;Min_cycle;Max_cycle;Signal;HPM_P1;HPM_P2
2022/08/06 00:02:08;;;;;;;5.90;5.32;;;;;;;;;;5087549;28;20016;-70
2022/08/06 00:04:34;;;;;;;5.70;5.10;;;;;;;;;;5085529;28;20032;-71
2022/08/06 00:07:00;;;;;;;6.28;5.68;;;;;;;;;;5074316;28;20115;-71
2022/08/06 00:09:33;;;;;;;6.40;5.80;;;;;;;;;;5074158;28;20028;-70
2022/08/06 00:11:59;;;;;;;7.10;6.22;;;;;;;;;;5073934;28;20471;-71
2022/08/06 00:14:29;;;;;;;7.50;6.22;;;;;;;;;;5074070;28;20047;-71
2022/08/06 00:16:56;;;;;;;10.82;6.53;;;;;;;;;;5081384;28;20023;-71
2022/08/06 00:19:22;;;;;;;7.20;5.75;;;;;;;;;;5074721;28;20533;-71
2022/08/06 00:21:48;;;;;;;6.22;5.63;;;;;;;;;;5076430;28;20068;-70
2022/08/06 00:24:15;;;;;;;7.72;5.70;;;;;;;;;;5077425;28;20462;-70
2022/08/06 00:26:41;;;;;;;7.18;5.68;;;;;;;;;;5076062;28;20048;-72
2022/08/06 00:29:07;;;;;;;8.13;5.88;;;;;;;;;;5075765;28;20068;-71
2022/08/06 00:31:33;;;;;;;8.10;5.90;;;;;;;;;;5085177;28;20542;-71
2022/08/06 00:34:01;;;;;;;7.80;5.88;;;;;;;;;;5082145;28;20090;-70
2022/08/06 00:36:28;;;;;;;9.93;6.20;;;;;;;;;;5073770;28;20093;-69
2022/08/06 00:38:54;;;;;;;6.95;5.70;;;;;;;;;;5073273;28;20016;-69
2022/08/06 00:41:21;;;;;;;8.07;5.72;;;;;;;;;;5079270;28;20020;-69
2022/08/06 00:43:47;;;;;;;7.15;5.75;;;;;;;;;;5073141;28;20013;-69
2022/08/06 00:46:13;;;;;;;7.88;5.68;;;;;;;;;;5073532;28;20379;-70
2022/08/06 00:48:39;;;;;;;7.05;5.72;;;;;;;;;;5071343;28;20036;-67
2022/08/06 00:51:05;;;;;;;7.43;5.18;;;;;;;;;;5073410;28;20391;-68
2022/08/06 00:53:31;;;;;;;5.93;5.32;;;;;;;;;;5073013;28;20016;-67
2022/08/06 00:55:58;;;;;;;6.60;5.90;;;;;;;;;;5072938;28;20423;-67
2022/08/06 00:58:24;;;;;;;6.53;5.55;;;;;;;;;;5072666;28;20012;-68
2022/08/06 01:00:50;;;;;;;9.00;6.25;;;;;;;;;;5073054;28;20188;-67
2022/08/06 01:03:16;;;;;;;7.18;5.68;;;;;;;;;;5073409;28;20436;-67
2022/08/06 01:05:43;;;;;;;8.88;5.90;;;;;;;;;;5073253;28;20433;-68
2022/08/06 01:08:10;;;;;;;8.65;6.40;;;;;;;;;;5073124;28;20016;-67
2022/08/06 01:10:36;;;;;;;8.88;5.88;;;;;;;;;;5072804;28;20078;-66
2022/08/06 01:13:02;;;;;;;7.50;5.47;;;;;;;;;;5072762;28;20020;-66
2022/08/06 01:15:28;;;;;;;7.72;6.13;;;;;;;;;;5072696;28;20046;-67
2022/08/06 01:17:54;;;;;;;6.53;5.05;;;;;;;;;;5073217;28;20016;-66
2022/08/06 01:20:20;;;;;;;8.40;6.07;;;;;;;;;;5073085;28;20029;-66
2022/08/06 01:22:58;;;;;;;7.15;5.50;;;;;;;;;;5072721;28;20025;-66
2022/08/06 01:25:43;;;;;;;8.23;5.60;;;;;;;;;;5073044;28;20020;-66
2022/08/06 01:28:15;;;;;;;7.07;5.70;;;;;;;;;;5072532;28;20020;-66
2022/08/06 01:30:45;;;;;;;8.00;5.85;;;;;;;;;;5072335;28;20037;-66
2022/08/06 01:33:17;;;;;;;6.82;5.90;;;;;;;;;;5075131;28;20127;-67
2022/08/06 01:35:48;;;;;;;6.38;5.68;;;;;;;;;;5082775;28;20051;-67
2022/08/06 01:38:16;;;;;;;6.95;5.75;;;;;;;;;;5072431;28;20081;-68
2022/08/06 01:40:45;;;;;;;7.18;5.93;;;;;;;;;;5072354;28;20403;-67
2022/08/06 01:43:13;;;;;;;6.18;5.57;;;;;;;;;;5072261;28;20535;-68
2022/08/06 01:45:40;;;;;;;6.00;5.28;;;;;;;;;;5071986;28;20032;-68
2022/08/06 01:48:09;;;;;;;7.82;5.45;;;;;;;;;;5072226;28;20066;-68
2022/08/06 01:50:44;;;;;;;6.88;5.40;;;;;;;;;;5071958;28;20033;-69
2022/08/06 01:53:13;;;;;;;7.32;5.95;;;;;;;;;;5072134;28;20032;-68
2022/08/06 01:55:41;;;;;;;6.35;5.75;;;;;;;;;;5073930;28;20025;-68
2022/08/06 01:58:08;;;;;;;6.75;6.05;;;;;;;;;;5072653;28;20016;-68
2022/08/06 02:00:37;;;;;;;6.43;5.20;;;;;;;;;;5071900;28;20443;-68
2022/08/06 02:03:07;;;;;;;5.78;5.28;;;;;;;;;;5071959;28;20021;-68
2022/08/06 02:05:34;;;;;;;6.53;5.55;;;;;;;;;;5072204;28;20020;-68
2022/08/06 02:08:00;;;;;;;5.93;4.88;;;;;;;;;;5072000;28;20036;-68
2022/08/06 02:10:29;;;;;;;6.10;5.40;;;;;;;;;;5071867;28;20024;-68
2022/08/06 02:12:55;;;;;;;7.00;5.60;;;;;;;;;;5072025;28;20548;-68
2022/08/06 02:15:24;;;;;;;6.32;4.95;;;;;;;;;;5072109;28;20025;-68
2022/08/06 02:17:51;;;;;;;7.45;5.90;;;;;;;;;;5072355;28;20028;-68
2022/08/06 02:20:19;;;;;;;6.30;5.70;;;;;;;;;;5072288;28;20031;-68
2022/08/06 02:22:46;;;;;;;6.03;5.43;;;;;;;;;;5071927;28;20024;-67
2022/08/06 02:25:13;;;;;;;6.68;5.55;;;;;;;;;;5074174;28;20036;-69
2022/08/06 02:27:41;;;;;;;6.78;6.07;;;;;;;;;;5075846;28;20025;-67
2022/08/06 02:30:08;;;;;;;8.25;5.22;;;;;;;;;;5076367;28;20368;-67
2022/08/06 02:32:34;;;;;;;6.90;6.30;;;;;;;;;;5075626;28;20044;-68
2022/08/06 02:35:00;;;;;;;7.13;5.72;;;;;;;;;;5089894;28;20024;-67
2022/08/06 02:37:38;;;;;;;7.28;5.38;;;;;;;;;;5075893;28;20032;-67
2022/08/06 02:40:18;;;;;;;6.22;5.63;;;;;;;;;;5088907;28;20020;-67
2022/08/06 02:43:02;;;;;;;5.88;5.28;;;;;;;;;;5075576;28;20467;-67
2022/08/06 02:45:31;;;;;;;6.28;5.47;;;;;;;;;;5075531;28;20028;-67
2022/08/06 02:48:20;;;;;;;6.43;5.78;;;;;;;;;;5080943;28;20020;-68
2022/08/06 02:50:48;;;;;;;6.63;5.93;;;;;;;;;;5075403;28;20032;-67
2022/08/06 02:53:19;;;;;;;6.53;5.45;;;;;;;;;;5075486;28;20491;-66
2022/08/06 02:55:47;;;;;;;6.30;4.80;;;;;;;;;;5075194;28;20107;-67
2022/08/06 02:58:20;;;;;;;5.65;5.15;;;;;;;;;;5075393;28;20017;-67
2022/08/06 03:00:49;;;;;;;8.32;5.40;;;;;;;;;;5075210;28;20032;-67
2022/08/06 03:03:15;;;;;;;6.45;5.50;;;;;;;;;;5075251;28;20025;-67
2022/08/06 03:05:44;;;;;;;6.95;5.10;;;;;;;;;;5075354;28;20031;-68
2022/08/06 03:08:11;;;;;;;6.07;5.40;;;;;;;;;;5075269;28;20035;-66
2022/08/06 03:10:38;;;;;;;7.10;5.32;;;;;;;;;;5075091;28;20556;-68
2022/08/06 03:13:05;;;;;;;5.70;5.13;;;;;;;;;;5075155;28;20027;-66
2022/08/06 03:15:32;;;;;;;6.10;5.50;;;;;;;;;;5074953;28;20024;-66
2022/08/06 03:18:00;;;;;;;6.72;6.13;;;;;;;;;;5075272;28;20058;-68
2022/08/06 03:20:27;;;;;;;6.43;5.78;;;;;;;;;;5075177;28;20058;-68
2022/08/06 03:22:55;;;;;;;6.88;5.63;;;;;;;;;;5073385;28;20052;-68
2022/08/06 03:25:22;;;;;;;7.35;5.63;;;;;;;;;;5074826;28;20360;-67
2022/08/06 03:27:49;;;;;;;5.80;5.18;;;;;;;;;;5074965;28;20016;-67
2022/08/06 03:30:16;;;;;;;7.10;5.80;;;;;;;;;;5074849;28;20418;-66
2022/08/06 03:32:42;;;;;;;7.25;5.82;;;;;;;;;;5073134;28;20039;-67
2022/08/06 03:35:09;;;;;;;6.82;5.68;;;;;;;;;;5088611;28;20115;-65
2022/08/06 03:37:35;;;;;;;6.30;5.70;;;;;;;;;;5074461;28;20029;-68
2022/08/06 03:40:02;;;;;;;7.18;5.85;;;;;;;;;;5076064;28;20109;-67
2022/08/06 03:42:28;;;;;;;7.60;6.10;;;;;;;;;;5085488;28;20099;-68
2022/08/06 03:44:54;;;;;;;5.90;5.40;;;;;;;;;;5074215;28;20476;-68
2022/08/06 03:47:24;;;;;;;10.25;5.65;;;;;;;;;;5074481;28;20156;-67
2022/08/06 03:49:53;;;;;;;10.02;5.78;;;;;;;;;;5074622;28;20025;-68
2022/08/06 03:52:31;;;;;;;7.07;5.03;;;;;;;;;;5074207;28;20021;-67
2022/08/06 03:55:05;;;;;;;5.88;5.07;;;;;;;;;;5074370;28;20025;-68
2022/08/06 03:57:42;;;;;;;7.10;5.63;;;;;;;;;;5074089;28;20029;-67
2022/08/06 04:00:09;;;;;;;7.95;5.82;;;;;;;;;;5074474;28;20077;-67
2022/08/06 04:02:41;;;;;;;9.38;5.50;;;;;;;;;;5087641;28;20024;-66
2022/08/06 04:05:07;;;;;;;6.00;5.40;;;;;;;;;;5074280;28;20044;-66
2022/08/06 04:07:34;;;;;;;7.30;5.45;;;;;;;;;;5073871;28;20082;-67
2022/08/06 04:10:01;;;;;;;6.45;5.57;;;;;;;;;;5074227;28;20032;-66
2022/08/06 04:12:27;;;;;;;8.60;5.60;;;;;;;;;;5074033;28;20013;-66
2022/08/06 04:14:54;;;;;;;7.75;5.78;;;;;;;;;;5074210;28;20074;-66
2022/08/06 04:17:21;;;;;;;6.22;5.63;;;;;;;;;;5073936;28;20059;-67
2022/08/06 04:19:48;;;;;;;8.57;5.70;;;;;;;;;;5073968;28;20032;-66
2022/08/06 04:22:15;;;;;;;7.28;5.90;;;;;;;;;;5074112;28;20391;-65
2022/08/06 04:24:41;;;;;;;10.43;5.75;;;;;;;;;;5074243;28;20435;-67
2022/08/06 04:27:07;;;;;;;9.52;6.55;;;;;;;;;;5074105;28;20025;-67
2022/08/06 04:29:35;;;;;;;10.35;7.72;;;;;;;;;;5073825;28;20043;-67
2022/08/06 04:32:02;;;;;;;6.68;6.00;;;;;;;;;;5073686;28;20023;-67
2022/08/06 04:34:29;;;;;;;7.57;6.47;;;;;;;;;;5087129;28;20024;-67
2022/08/06 04:36:56;;;;;;;7.68;6.40;;;;;;;;;;5075184;28;20113;-67
2022/08/06 04:39:22;;;;;;;7.72;6.05;;;;;;;;;;5072233;28;20033;-67
2022/08/06 04:41:49;;;;;;;7.75;6.18;;;;;;;;;;5073953;28;20044;-66
2022/08/06 04:44:15;;;;;;;8.38;6.45;;;;;;;;;;5073672;28;20031;-67
2022/08/06 04:46:43;;;;;;;7.70;6.47;;;;;;;;;;5073440;28;20483;-66
2022/08/06 04:49:09;;;;;;;6.07;5.47;;;;;;;;;;5073557;28;20028;-67
2022/08/06 04:51:35;;;;;;;8.80;5.43;;;;;;;;;;5073324;28;20024;-66
2022/08/06 04:54:05;;;;;;;8.73;6.40;;;;;;;;;;5073567;28;20074;-66
2022/08/06 04:56:31;;;;;;;8.23;5.75;;;;;;;;;;5073168;28;20074;-67
2022/08/06 04:58:57;;;;;;;11.48;6.13;;;;;;;;;;5072913;28;20055;-67
2022/08/06 05:01:23;;;;;;;8.75;5.85;;;;;;;;;;5072949;28;20035;-67
2022/08/06 05:03:49;;;;;;;9.98;5.65;;;;;;;;;;5072607;28;20021;-67
2022/08/06 05:06:22;;;;;;;10.45;6.13;;;;;;;;;;5073301;28;20078;-66
2022/08/06 05:08:50;;;;;;;11.93;5.63;;;;;;;;;;5072735;28;20072;-69
2022/08/06 05:11:19;;;;;;;7.10;5.55;;;;;;;;;;5073053;28;20021;-66
2022/08/06 05:13:47;;;;;;;8.10;5.63;;;;;;;;;;5072680;28;20029;-67
2022/08/06 05:16:15;;;;;;;7.55;5.45;;;;;;;;;;5072503;28;20013;-67
2022/08/06 05:18:44;;;;;;;10.73;5.80;;;;;;;;;;5072653;28;20137;-68
2022/08/06 05:21:11;;;;;;;6.25;5.65;;;;;;;;;;5072671;28;20021;-67
2022/08/06 05:23:41;;;;;;;6.80;5.40;;;;;;;;;;5072374;28;20045;-67
2022/08/06 05:26:07;;;;;;;7.65;5.47;;;;;;;;;;5072434;28;20031;-67
2022/08/06 05:28:34;;;;;;;5.78;5.28;;;;;;;;;;5072173;28;20499;-66
2022/08/06 05:31:00;;;;;;;5.97;5.38;;;;;;;;;;5072145;28;20112;-68
2022/08/06 05:33:30;;;;;;;6.25;4.93;;;;;;;;;;5080896;28;20046;-67
2022/08/06 05:35:57;;;;;;;6.88;5.88;;;;;;;;;;5080995;28;20059;-66
2022/08/06 05:38:25;;;;;;;10.20;6.15;;;;;;;;;;5072462;28;20074;-69
2022/08/06 05:40:52;;;;;;;11.15;6.28;;;;;;;;;;5072236;28;20599;-68
2022/08/06 05:43:18;;;;;;;9.70;5.75;;;;;;;;;;5072158;28;20074;-68
2022/08/06 05:45:45;;;;;;;6.97;5.43;;;;;;;;;;5071905;28;20024;-69
2022/08/06 05:48:12;;;;;;;10.30;6.20;;;;;;;;;;5072395;28;20112;-68
2022/08/06 05:50:40;;;;;;;7.90;5.97;;;;;;;;;;5072706;28;20028;-68
2022/08/06 05:53:09;;;;;;;10.60;6.43;;;;;;;;;;5072507;28;20059;-68
2022/08/06 05:55:38;;;;;;;8.10;6.03;;;;;;;;;;5072403;28;20030;-67
2022/08/06 05:58:07;;;;;;;6.70;5.32;;;;;;;;;;5072161;28;20021;-68
2022/08/06 06:00:33;;;;;;;8.70;6.80;;;;;;;;;;5071410;28;20031;-67
2022/08/06 06:03:01;;;;;;;10.38;5.78;;;;;;;;;;5072105;28;20029;-69
2022/08/06 06:05:27;;;;;;;11.30;7.47;;;;;;;;;;5071840;28;20103;-69
2022/08/06 06:07:55;;;;;;;9.52;5.25;;;;;;;;;;5072230;28;20055;-69
2022/08/06 06:10:24;;;;;;;7.93;5.32;;;;;;;;;;5071822;28;20370;-69
2022/08/06 06:12:50;;;;;;;6.20;5.10;;;;;;;;;;5071827;28;20028;-68
2022/08/06 06:15:17;;;;;;;7.53;5.47;;;;;;;;;;5071729;28;20028;-69
2022/08/06 06:17:52;;;;;;;7.70;5.30;;;;;;;;;;5071503;28;20025;-67
2022/08/06 06:20:22;;;;;;;7.93;5.43;;;;;;;;;;5071900;28;20107;-67
2022/08/06 06:22:52;;;;;;;8.80;5.57;;;;;;;;;;5085843;28;20123;-67
2022/08/06 06:25:21;;;;;;;7.80;5.28;;;;;;;;;;5071523;28;20029;-67
2022/08/06 06:27:54;;;;;;;8.48;5.15;;;;;;;;;;5071916;28;20467;-68
2022/08/06 06:30:27;;;;;;;6.45;5.45;;;;;;;;;;5072987;28;20032;-69
2022/08/06 06:33:07;;;;;;;11.57;6.15;;;;;;;;;;5071683;28;20468;-70
2022/08/06 06:35:46;;;;;;;10.15;5.72;;;;;;;;;;5083735;28;20037;-68
2022/08/06 06:38:16;;;;;;;6.32;5.72;;;;;;;;;;5071411;28;20029;-67
2022/08/06 06:40:45;;;;;;;8.30;5.60;;;;;;;;;;5078502;28;20020;-68
2022/08/06 06:43:11;;;;;;;7.38;5.30;;;;;;;;;;5071873;28;20382;-66
2022/08/06 06:45:46;;;;;;;7.13;5.15;;;;;;;;;;5082181;28;20526;-66
2022/08/06 06:48:41;;;;;;;8.10;5.43;;;;;;;;;;5077170;28;20021;-66
2022/08/06 06:51:09;;;;;;;6.85;6.18;;;;;;;;;;5039943;28;20094;-67
2022/08/06 06:53:37;;;;;;;6.68;5.68;;;;;;;;;;5049509;28;20829;-68
2022/08/06 06:56:04;;;;;;;11.20;5.55;;;;;;;;;;5049627;28;20025;-67
2022/08/06 06:58:38;;;;;;;14.38;5.28;;;;;;;;;;5049531;28;20035;-69
2022/08/06 07:01:06;;;;;;;6.85;4.85;;;;;;;;;;5049405;28;20025;-67
2022/08/06 07:03:33;;;;;;;5.70;5.10;;;;;;;;;;5049439;28;20087;-66
2022/08/06 07:06:00;;;;;;;10.52;5.60;;;;;;;;;;5042165;28;20419;-68
2022/08/06 07:08:27;;;;;;;7.55;5.50;;;;;;;;;;5049387;28;20048;-65
2022/08/06 07:10:55;;;;;;;7.57;5.60;;;;;;;;;;5050717;28;20096;-66
2022/08/06 07:13:21;;;;;;;8.32;5.43;;;;;;;;;;5053107;28;20052;-66
2022/08/06 07:15:49;;;;;;;7.07;5.70;;;;;;;;;;5052987;28;20025;-66
2022/08/06 07:18:16;;;;;;;7.50;6.20;;;;;;;;;;5053022;28;20025;-66
2022/08/06 07:20:43;;;;;;;6.88;5.15;;;;;;;;;;5052651;28;20033;-65
2022/08/06 07:23:10;;;;;;;10.13;5.25;;;;;;;;;;5052978;28;20419;-65
2022/08/06 07:25:42;;;;;;;8.63;5.90;;;;;;;;;;5052057;28;20610;-66
2022/08/06 07:28:09;;;;;;;8.05;5.15;;;;;;;;;;5068896;28;20391;-65
2022/08/06 07:30:36;;;;;;;7.90;5.35;;;;;;;;;;5087631;28;20101;-64
2022/08/06 07:33:02;;;;;;;7.10;5.22;;;;;;;;;;5076263;28;20433;-65
2022/08/06 07:35:29;;;;;;;6.13;5.43;;;;;;;;;;5087112;28;20186;-66
2022/08/06 07:38:02;;;;;;;6.43;5.82;;;;;;;;;;5074571;28;20029;-65
2022/08/06 07:40:31;;;;;;;5.35;4.85;;;;;;;;;;5074559;28;20024;-65
2022/08/06 07:43:05;;;;;;;6.03;5.10;;;;;;;;;;5074509;28;20031;-68
2022/08/06 07:45:33;;;;;;;5.95;5.38;;;;;;;;;;5074021;28;20021;-67
2022/08/06 07:48:00;;;;;;;6.38;5.78;;;;;;;;;;5074474;28;20025;-67
2022/08/06 07:50:27;;;;;;;10.57;5.50;;;;;;;;;;5074155;28;20032;-67
2022/08/06 07:52:54;;;;;;;5.60;5.00;;;;;;;;;;5074253;28;20480;-67
2022/08/06 07:55:24;;;;;;;6.72;5.13;;;;;;;;;;5073918;28;20498;-66
2022/08/06 07:57:51;;;;;;;9.40;5.13;;;;;;;;;;5074065;28;20032;-66
2022/08/06 08:00:17;;;;;;;7.10;5.75;;;;;;;;;;5073667;28;20020;-67
2022/08/06 08:06:17;;;;;;;8.07;5.63;;;;;;;;;;5074101;28;20056;-67
2022/08/06 08:08:14;;;;;;;6.75;5.45;;;;;;;;;;5082933;28;20047;-69
2022/08/06 08:10:40;;;;;;;6.38;5.22;;;;;;;;;;5084265;28;20059;-66
2022/08/06 08:13:07;;;;;;;8.40;5.30;;;;;;;;;;5073960;28;20473;-65
2022/08/06 08:15:33;;;;;;;7.70;6.20;;;;;;;;;;5073899;28;20021;-66
2022/08/06 08:17:59;;;;;;;6.10;4.63;;;;;;;;;;5073491;28;20060;-65
2022/08/06 08:20:30;;;;;;;8.98;6.25;;;;;;;;;;5073637;28;20025;-66
2022/08/06 08:22:56;;;;;;;7.95;5.20;;;;;;;;;;5080363;28;20100;-66
2022/08/06 08:25:22;;;;;;;7.80;5.50;;;;;;;;;;5073824;28;20040;-66
2022/08/06 08:27:48;;;;;;;6.88;5.18;;;;;;;;;;5073676;28;20017;-65
2022/08/06 08:30:14;;;;;;;7.10;4.53;;;;;;;;;;5073652;28;20403;-68
2022/08/06 08:32:40;;;;;;;5.85;5.25;;;;;;;;;;5073236;28;20020;-66
2022/08/06 08:35:06;;;;;;;13.88;7.68;;;;;;;;;;5087774;28;20040;-66
2022/08/06 08:37:32;;;;;;;10.07;6.00;;;;;;;;;;5073321;28;20031;-67
2022/08/06 08:39:59;;;;;;;5.45;4.70;;;;;;;;;;5073088;28;20486;-67
2022/08/06 08:42:36;;;;;;;12.07;5.38;;;;;;;;;;5073405;28;20386;-67
2022/08/06 08:45:03;;;;;;;6.50;4.97;;;;;;;;;;5073167;28;20024;-68
2022/08/06 08:47:30;;;;;;;9.90;5.55;;;;;;;;;;5073326;28;20028;-67
2022/08/06 08:49:59;;;;;;;5.82;5.22;;;;;;;;;;5072917;28;20032;-69
2022/08/06 08:52:32;;;;;;;7.60;5.75;;;;;;;;;;5073088;28;20028;-68
2022/08/06 08:55:01;;;;;;;7.60;5.93;;;;;;;;;;5072971;28;20473;-68
2022/08/06 08:57:28;;;;;;;7.63;5.50;;;;;;;;;;5072937;28;20025;-68
2022/08/06 08:59:54;;;;;;;10.57;5.32;;;;;;;;;;5071758;28;20489;-66
2022/08/06 09:02:20;;;;;;;6.70;5.10;;;;;;;;;;5072562;28;20027;-66
2022/08/06 09:04:47;;;;;;;5.57;4.55;;;;;;;;;;5077665;28;20024;-66
2022/08/06 09:07:13;;;;;;;8.02;4.70;;;;;;;;;;5082932;28;20024;-67
2022/08/06 09:09:39;;;;;;;10.48;4.57;;;;;;;;;;5073057;28;20032;-68
2022/08/06 09:12:07;;;;;;;8.93;6.10;;;;;;;;;;5072609;28;20499;-67
2022/08/06 09:14:33;;;;;;;9.48;6.45;;;;;;;;;;5076738;28;20082;-67
2022/08/06 09:16:59;;;;;;;6.30;4.90;;;;;;;;;;5072594;28;20021;-68
2022/08/06 09:19:28;;;;;;;5.72;5.10;;;;;;;;;;5082697;28;20509;-67
2022/08/06 09:21:55;;;;;;;5.72;4.80;;;;;;;;;;5072896;28;20468;-67
2022/08/06 09:24:21;;;;;;;7.30;4.60;;;;;;;;;;5072777;28;20020;-68
2022/08/06 09:27:06;;;;;;;5.70;5.10;;;;;;;;;;5072720;28;20025;-68
2022/08/06 09:29:32;;;;;;;5.85;5.10;;;;;;;;;;5072850;28;20078;-66
2022/08/06 09:31:59;;;;;;;5.22;4.40;;;;;;;;;;5071825;28;20175;-68
2022/08/06 09:34:36;;;;;;;7.20;4.82;;;;;;;;;;5085667;28;20062;-68
2022/08/06 09:37:02;;;;;;;4.38;3.83;;;;;;;;;;5072474;28;20055;-67
2022/08/06 09:39:31;;;;;;;4.38;3.95;;;;;;;;;;5072366;28;20021;-65
2022/08/06 09:41:57;;;;;;;4.75;4.25;;;;;;;;;;5072212;28;20017;-67
2022/08/06 09:44:24;;;;;;;4.50;3.78;;;;;;;;;;5072640;28;20032;-68
2022/08/06 09:46:50;;;;;;;4.95;4.00;;;;;;;;;;5072210;28;20482;-67
2022/08/06 09:49:17;;;;;;;5.55;5.00;;;;;;;;;;5078472;28;20131;-68
2022/08/06 09:51:44;;;;;;;6.05;4.47;;;;;;;;;;5072154;28;20078;-68
2022/08/06 09:54:15;;;;;;;6.68;4.30;;;;;;;;;;5072346;28;20017;-67
2022/08/06 09:56:41;;;;;;;3.92;3.50;;;;;;;;;;5079196;28;20028;-68
2022/08/06 09:59:08;;;;;;;4.55;4.10;;;;;;;;;;5071891;28;20025;-68
2022/08/06 10:01:39;;;;;;;12.00;7.35;;;;;;;;;;5071615;28;20029;-67
2022/08/06 10:04:05;;;;;;;7.07;4.63;;;;;;;;;;5071940;28;20025;-67
2022/08/06 10:06:32;;;;;;;5.75;4.38;;;;;;;;;;5073438;28;20486;-68
2022/08/06 10:09:12;;;;;;;4.30;3.58;;;;;;;;;;5077925;28;20382;-67
2022/08/06 10:11:39;;;;;;;8.15;4.35;;;;;;;;;;5075951;28;20085;-67
2022/08/06 10:14:06;;;;;;;4.10;3.70;;;;;;;;;;5075932;28;20052;-67
2022/08/06 10:16:32;;;;;;;5.40;4.88;;;;;;;;;;5072069;28;20374;-67
2022/08/06 10:18:59;;;;;;;8.30;4.20;;;;;;;;;;5082630;28;20033;-67
2022/08/06 10:21:26;;;;;;;6.57;5.93;;;;;;;;;;5071753;28;20029;-68
2022/08/06 10:23:54;;;;;;;12.52;10.95;;;;;;;;;;5071842;28;20426;-67
2022/08/06 10:26:24;;;;;;;21.30;18.67;;;;;;;;;;5071919;28;20472;-66
2022/08/06 10:28:51;;;;;;;19.10;14.43;;;;;;;;;;5077449;28;20045;-67
2022/08/06 10:31:18;;;;;;;25.90;23.17;;;;;;;;;;5080886;28;20024;-68
2022/08/06 10:33:58;;;;;;;31.48;25.98;;;;;;;;;;5087088;28;20037;-67
2022/08/06 10:36:56;;;;;;;47.90;43.03;;;;;;;;;;5073660;28;20072;-68
2022/08/06 10:39:26;;;;;;;39.45;35.15;;;;;;;;;;5009654;28;20049;-68
2022/08/06 10:41:53;;;;;;;55.42;49.88;;;;;;;;;;5008625;28;20113;-69
2022/08/06 10:44:19;;;;;;;101.32;91.28;;;;;;;;;;5008715;28;20037;-69
2022/08/06 10:46:45;;;;;;;93.15;84.05;;;;;;;;;;5011261;28;20030;-68
2022/08/06 10:49:14;;;;;;;49.70;44.72;;;;;;;;;;5012544;28;20048;-69
2022/08/06 10:51:41;;;;;;;63.25;56.78;;;;;;;;;;5007334;28;20477;-68
2022/08/06 10:54:07;;;;;;;53.38;48.08;;;;;;;;;;5008879;28;20432;-69
2022/08/06 10:56:34;;;;;;;17.73;13.20;;;;;;;;;;5012749;28;20077;-69
2022/08/06 10:59:00;;;;;;;96.32;86.25;;;;;;;;;;5011753;28;20105;-69
2022/08/06 11:01:35;;;;;;;54.42;48.88;;;;;;;;;;5013250;28;20152;-69
2022/08/06 11:04:14;;;;;;;38.97;31.92;;;;;;;;;;5012819;28;20022;-69
2022/08/06 11:06:40;;;;;;;18.63;16.42;;;;;;;;;;5013114;28;20129;-70
2022/08/06 11:09:06;;;;;;;13.68;10.00;;;;;;;;;;5012814;28;20034;-68
2022/08/06 11:11:43;;;;;;;43.28;38.83;;;;;;;;;;5012667;28;20071;-69
2022/08/06 11:14:11;;;;;;;85.07;76.60;;;;;;;;;;5023842;28;20033;-69
2022/08/06 11:16:37;;;;;;;39.85;36.00;;;;;;;;;;5073979;28;20062;-69
2022/08/06 11:19:03;;;;;;;26.20;23.58;;;;;;;;;;5074658;28;20031;-69
2022/08/06 11:21:55;;;;;;;48.30;43.38;;;;;;;;;;5074823;28;20016;-69
2022/08/06 11:24:21;;;;;;;26.90;23.80;;;;;;;;;;5069756;28;20036;-70
2022/08/06 11:26:47;;;;;;;18.40;16.23;;;;;;;;;;5075115;28;20074;-68
2022/08/06 11:29:17;;;;;;;33.60;30.42;;;;;;;;;;5075219;28;20033;-69
2022/08/06 11:31:48;;;;;;;35.67;32.38;;;;;;;;;;5074930;28;20056;-70
2022/08/06 11:34:15;;;;;;;13.68;12.35;;;;;;;;;;5086452;28;20032;-69
2022/08/06 11:36:46;;;;;;;42.70;38.40;;;;;;;;;;5077162;28;20607;-70
2022/08/06 11:39:12;;;;;;;9.68;8.68;;;;;;;;;;5074943;28;20056;-70
2022/08/06 11:41:46;;;;;;;6.97;5.95;;;;;;;;;;5074453;28;20543;-69
2022/08/06 11:44:15;;;;;;;31.80;28.65;;;;;;;;;;5074703;28;20012;-69
2022/08/06 11:46:44;;;;;;;26.00;23.48;;;;;;;;;;5075069;28;20025;-69
2022/08/06 11:49:10;;;;;;;25.30;23.05;;;;;;;;;;5074454;28;20041;-69
2022/08/06 11:51:36;;;;;;;10.20;9.20;;;;;;;;;;5074474;28;20082;-68
2022/08/06 11:54:21;;;;;;;9.40;7.88;;;;;;;;;;5074238;28;20042;-69
2022/08/06 11:57:03;;;;;;;16.23;13.13;;;;;;;;;;5074487;28;20378;-70
2022/08/06 11:59:30;;;;;;;19.02;17.23;;;;;;;;;;5074202;28;20062;-69
2022/08/06 12:01:56;;;;;;;11.32;9.60;;;;;;;;;;5074180;28;20054;-69
2022/08/06 12:04:38;;;;;;;12.40;11.18;;;;;;;;;;5073877;28;20467;-69
2022/08/06 12:07:15;;;;;;;13.27;12.02;;;;;;;;;;5080300;28;20021;-68
2022/08/06 12:09:41;;;;;;;13.43;12.00;;;;;;;;;;5094303;28;20035;-69
2022/08/06 12:12:27;;;;;;;9.32;7.05;;;;;;;;;;5077711;28;20020;-68
2022/08/06 12:14:55;;;;;;;10.55;9.10;;;;;;;;;;5078261;28;20067;-68
2022/08/06 12:17:23;;;;;;;13.10;8.90;;;;;;;;;;5074004;28;20028;-70
2022/08/06 12:19:52;;;;;;;8.15;6.50;;;;;;;;;;5073788;28;20036;-68
2022/08/06 12:22:20;;;;;;;10.68;8.32;;;;;;;;;;5073780;28;20513;-70
2022/08/06 12:24:49;;;;;;;7.10;5.18;;;;;;;;;;5071275;28;20045;-69
2022/08/06 12:27:18;;;;;;;8.32;7.53;;;;;;;;;;5073812;28;20482;-70
2022/08/06 12:29:44;;;;;;;10.45;9.32;;;;;;;;;;5078778;28;20048;-69
2022/08/06 12:32:27;;;;;;;16.45;12.13;;;;;;;;;;5079512;28;20024;-69
2022/08/06 12:34:55;;;;;;;14.85;13.30;;;;;;;;;;5077199;28;20024;-68
2022/08/06 12:37:21;;;;;;;8.20;7.35;;;;;;;;;;5073233;28;20037;-68
2022/08/06 12:42:34;;;;;;;27.77;25.00;;;;;;;;;;5079789;28;20436;-69
2022/08/06 12:45:00;;;;;;;21.58;19.45;;;;;;;;;;5078008;28;20024;-69
2022/08/06 12:47:26;;;;;;;66.15;59.75;;;;;;;;;;5073350;28;20035;-68
2022/08/06 12:49:53;;;;;;;41.90;37.80;;;;;;;;;;5072817;28;20596;-69
2022/08/06 12:52:21;;;;;;;28.85;25.73;;;;;;;;;;5073468;28;20039;-69
2022/08/06 12:54:47;;;;;;;53.70;48.50;;;;;;;;;;5073416;28;20387;-68
2022/08/06 12:57:27;;;;;;;20.40;18.40;;;;;;;;;;5072805;28;20038;-70
2022/08/06 12:59:54;;;;;;;19.65;17.60;;;;;;;;;;5072917;28;20032;-70
2022/08/06 13:02:21;;;;;;;30.45;27.38;;;;;;;;;;5073061;28;20023;-69
2022/08/06 13:04:50;;;;;;;26.35;23.58;;;;;;;;;;5078670;28;20034;-69
2022/08/06 13:07:16;;;;;;;51.53;46.70;;;;;;;;;;5072740;28;20036;-67
2022/08/06 13:09:43;;;;;;;43.47;39.33;;;;;;;;;;5072323;28;20107;-70
2022/08/06 13:12:17;;;;;;;37.85;34.15;;;;;;;;;;5072598;28;20070;-69
2022/08/06 13:14:53;;;;;;;13.60;9.68;;;;;;;;;;5072857;28;20028;-69
2022/08/06 13:17:21;;;;;;;34.13;30.38;;;;;;;;;;5072424;28;20017;-69
2022/08/06 13:19:51;;;;;;;29.38;26.60;;;;;;;;;;5072852;28;20426;-69
2022/08/06 13:22:17;;;;;;;17.95;16.33;;;;;;;;;;5072689;28;20024;-69
2022/08/06 13:24:43;;;;;;;14.95;13.40;;;;;;;;;;5072542;28;20570;-68
2022/08/06 13:27:09;;;;;;;27.23;24.10;;;;;;;;;;5073014;28;20020;-68
2022/08/06 13:29:35;;;;;;;19.85;17.13;;;;;;;;;;5072262;28;20068;-69
2022/08/06 13:32:09;;;;;;;19.27;17.42;;;;;;;;;;5071091;28;20021;-69
2022/08/06 13:34:51;;;;;;;12.45;9.45;;;;;;;;;;5086496;28;20027;-69
2022/08/06 13:37:18;;;;;;;17.70;13.27;;;;;;;;;;5072378;28;20036;-70
2022/08/06 13:39:51;;;;;;;12.85;8.23;;;;;;;;;;5072414;28;20035;-69
2022/08/06 13:42:17;;;;;;;17.67;15.88;;;;;;;;;;5072734;28;20031;-70
2022/08/06 13:44:46;;;;;;;8.48;7.55;;;;;;;;;;5072452;28;20078;-68
2022/08/06 13:47:16;;;;;;;11.85;10.63;;;;;;;;;;5072521;28;20021;-68
2022/08/06 13:49:42;;;;;;;6.17;5.40;;;;;;;;;;5072471;28;20028;-69
2022/08/06 13:52:09;;;;;;;12.25;8.93;;;;;;;;;;5072453;28;20214;-69
2022/08/06 13:54:35;;;;;;;12.07;10.88;;;;;;;;;;5072535;28;20052;-70
2022/08/06 13:57:01;;;;;;;13.18;7.53;;;;;;;;;;5072194;28;20475;-68
2022/08/06 13:59:28;;;;;;;12.07;10.90;;;;;;;;;;5075772;28;20035;-68
2022/08/06 14:01:57;;;;;;;8.75;5.35;;;;;;;;;;5077576;28;20020;-69
2022/08/06 14:04:24;;;;;;;8.00;6.88;;;;;;;;;;5072313;28;20063;-68
2022/08/06 14:06:51;;;;;;;7.85;7.05;;;;;;;;;;5072216;28;20029;-68
2022/08/06 14:09:19;;;;;;;9.50;5.68;;;;;;;;;;5071862;28;20028;-70
2022/08/06 14:11:45;;;;;;;9.13;7.53;;;;;;;;;;5071897;28;20024;-69
2022/08/06 14:14:11;;;;;;;9.43;8.52;;;;;;;;;;5071491;28;20016;-70
2022/08/06 14:16:37;;;;;;;8.90;8.10;;;;;;;;;;5071873;28;20060;-69
2022/08/06 14:19:03;;;;;;;8.60;5.38;;;;;;;;;;5070581;28;20035;-69
2022/08/06 14:21:29;;;;;;;9.13;7.22;;;;;;;;;;5074565;28;20052;-69
2022/08/06 14:23:55;;;;;;;7.47;4.85;;;;;;;;;;5076029;28;20024;-71
2022/08/06 14:26:21;;;;;;;6.30;5.53;;;;;;;;;;5074428;28;20074;-68
2022/08/06 14:28:47;;;;;;;6.78;4.70;;;;;;;;;;5075766;28;20036;-69
2022/08/06 14:31:13;;;;;;;8.45;7.65;;;;;;;;;;5075813;28;20470;-69
2022/08/06 14:33:44;;;;;;;10.32;7.47;;;;;;;;;;5082155;28;20535;-70
2022/08/06 14:36:10;;;;;;;;;;;;;;;;;;5082844;28;20056;-69
2022/08/06 14:38:36;;;;;;;7.88;5.88;;;;;;;;;;5076096;28;19913;-69
2022/08/06 14:46:32;;;;;;;7.90;6.05;;;;;;;;;;5075396;28;20040;-69
2022/08/06 14:48:59;;;;;;;10.30;5.93;;;;;;;;;;5075239;28;20036;-69
2022/08/06 14:51:26;;;;;;;6.07;5.00;;;;;;;;;;5075440;28;20024;-69
2022/08/06 14:53:52;;;;;;;7.90;6.13;;;;;;;;;;5075744;28;20017;-68
2022/08/06 14:56:18;;;;;;;7.05;5.68;;;;;;;;;;5083502;28;20040;-68